Time;durP1;ratioP1;P1;durP2;ratioP2;P2;SDS_P1;SDS_P2;PMS_P1;PMS_P2;Temp;Humidity;BMP_temperature;BMP_pressure;BME280_temperature;BME280_humidity;BME280_pressure;Samples;Min_cycle;Max_cycle;Signal;HPM_P1;HPM_P2
2022/02/12 00:01:46;;;;;;;10.10;5.50;;;-0.70;99.90;;;0.23;100.00;99826.66;5037705;28;20499;-78
2022/02/12 00:04:16;;;;;;;7.37;4.10;;;-0.70;99.90;;;0.13;100.00;99829.75;5035367;28;20835;-78
2022/02/12 00:06:47;;;;;;;8.43;4.60;;;-0.90;99.90;;;0.13;100.00;99820.31;5046167;28;20565;-78
2022/02/12 00:09:17;;;;;;;14.10;4.60;;;-0.80;99.90;;;0.14;100.00;99816.81;5048463;28;20457;-78
2022/02/12 00:11:47;;;;;;;9.87;4.63;;;-0.80;99.90;;;0.12;100.00;99823.78;5047487;28;20463;-78
2022/02/12 00:14:17;;;;;;;7.10;3.90;;;-0.80;99.90;;;0.09;100.00;99828.25;5044828;28;20508;-78
2022/02/12 00:16:48;;;;;;;14.63;3.63;;;-0.90;99.90;;;0.13;100.00;99828.03;5049142;28;20459;-78
2022/02/12 00:19:18;;;;;;;13.37;4.10;;;-0.80;99.90;;;0.10;100.00;99825.63;5052304;28;20872;-78
2022/02/12 00:21:49;;;;;;;13.87;4.03;;;-0.90;99.90;;;0.12;100.00;99822.94;5048258;28;20457;-78
2022/02/12 00:24:18;;;;;;;12.70;4.70;;;-0.90;99.90;;;0.03;100.00;99813.97;5046708;28;20521;-78
2022/02/12 00:26:48;;;;;;;7.60;3.70;;;-1.00;99.90;;;-0.11;100.00;99811.25;5050616;28;21022;-78
2022/02/12 00:29:18;;;;;;;6.67;3.80;;;-1.10;99.90;;;-0.02;100.00;99815.94;5050364;28;20836;-78
2022/02/12 00:31:48;;;;;;;7.43;3.90;;;-1.00;99.90;;;0.03;100.00;99813.13;5044296;28;21005;-78
2022/02/12 00:34:18;;;;;;;11.27;4.73;;;-0.90;99.90;;;0.07;100.00;99794.88;5044371;28;20468;-78
2022/02/12 00:36:51;;;;;;;7.53;3.70;;;-0.90;99.90;;;0.04;100.00;99807.91;5046220;28;21043;-78
2022/02/12 00:39:20;;;;;;;13.80;5.07;;;-0.90;99.90;;;-0.04;100.00;99812.63;5044367;28;20989;-78
2022/02/12 00:41:49;;;;;;;9.73;3.80;;;-1.00;99.90;;;-0.16;100.00;99798.63;5045041;28;20597;-78
2022/02/12 00:44:18;;;;;;;9.17;3.63;;;-1.10;99.90;;;-0.14;100.00;99798.56;5048005;28;20461;-78
2022/02/12 00:46:48;;;;;;;9.10;3.83;;;-1.10;99.90;;;-0.17;100.00;99802.09;5046433;28;20473;-78
2022/02/12 00:49:18;;;;;;;8.33;3.43;;;-1.10;99.90;;;-0.08;100.00;99796.50;5045744;28;20826;-78
2022/02/12 00:51:50;;;;;;;8.30;3.43;;;-1.00;99.90;;;-0.11;100.00;99790.69;5047096;28;20962;-78
2022/02/12 00:54:20;;;;;;;6.57;4.03;;;-1.10;99.90;;;-0.13;100.00;99788.19;5045346;28;20484;-78
2022/02/12 00:56:50;;;;;;;16.07;3.93;;;-1.10;99.90;;;-0.08;100.00;99793.09;5046475;28;20460;-78
2022/02/12 00:59:20;;;;;;;7.93;3.50;;;-0.90;99.90;;;-0.12;100.00;99789.88;5046963;28;20716;-78
2022/02/12 01:01:51;;;;;;;4.83;2.90;;;-1.00;99.90;;;-0.16;100.00;99784.94;5048886;28;21008;-78
2022/02/12 01:04:21;;;;;;;13.33;3.47;;;-1.10;99.90;;;-0.25;100.00;99783.69;5046547;28;20475;-78
2022/02/12 01:06:52;;;;;;;8.17;4.03;;;-1.20;99.90;;;-0.42;100.00;99781.13;5046468;28;20513;-78
2022/02/12 01:09:22;;;;;;;6.03;4.00;;;-1.40;99.90;;;-0.43;100.00;99783.75;5043500;28;20467;-78
2022/02/12 01:11:51;;;;;;;11.93;3.90;;;-1.50;99.90;;;-0.50;100.00;99788.34;5045965;28;20462;-78
2022/02/12 01:14:21;;;;;;;13.43;3.30;;;-1.50;99.90;;;-0.57;100.00;99777.56;5043895;28;20496;-78
2022/02/12 01:16:52;;;;;;;4.90;3.20;;;-1.50;99.90;;;-0.60;100.00;99774.28;5047608;28;20470;-78
2022/02/12 01:19:21;;;;;;;10.13;3.77;;;-1.60;99.90;;;-0.49;100.00;99781.47;5053036;28;20516;-78
2022/02/12 01:21:52;;;;;;;7.90;3.33;;;-1.40;99.90;;;-0.52;100.00;99780.72;5045313;28;20456;-79
2022/02/12 01:24:22;;;;;;;5.73;4.03;;;-1.50;99.90;;;-0.53;100.00;99786.78;5044988;28;20808;-78
2022/02/12 01:26:56;;;;;;;11.43;3.57;;;-1.50;99.90;;;-0.60;100.00;99793.13;5044959;28;20870;-77
2022/02/12 01:29:25;;;;;;;10.23;3.90;;;-1.60;99.90;;;-0.57;100.00;99787.81;5045606;28;20540;-78
2022/02/12 01:31:57;;;;;;;7.83;3.73;;;-1.60;99.90;;;-0.52;100.00;99785.84;5048689;28;20552;-78
2022/02/12 01:34:26;;;;;;;10.63;4.13;;;-1.40;99.90;;;-0.58;100.00;99781.00;5042074;28;20532;-78
2022/02/12 01:36:58;;;;;;;9.93;3.80;;;-1.50;99.90;;;-0.56;100.00;99774.09;5044739;28;20691;-78
2022/02/12 01:39:27;;;;;;;7.37;3.37;;;-1.40;99.90;;;-0.49;100.00;99773.78;5042980;28;20457;-78
2022/02/12 01:41:58;;;;;;;10.23;3.93;;;-1.30;99.90;;;-0.48;100.00;99772.84;5043413;28;20521;-78
2022/02/12 01:44:31;;;;;;;14.30;3.97;;;-1.40;99.90;;;-0.56;100.00;99779.22;5046910;28;20464;-78
2022/02/12 01:47:01;;;;;;;11.80;3.40;;;-1.50;99.90;;;-0.67;100.00;99776.34;5047504;28;20461;-78
2022/02/12 01:49:32;;;;;;;8.10;3.30;;;-1.60;99.90;;;-0.60;100.00;99766.59;5047553;28;20556;-78
2022/02/12 01:52:07;;;;;;;9.10;3.60;;;-1.60;99.90;;;-0.66;100.00;99765.13;5042264;28;20469;-78
2022/02/12 01:54:38;;;;;;;6.67;3.30;;;-1.60;99.90;;;-0.64;100.00;99765.06;5045374;28;21193;-78
2022/02/12 01:57:09;;;;;;;8.87;3.30;;;-1.60;99.90;;;-0.62;100.00;99766.66;5046918;28;20834;-78
2022/02/12 01:59:40;;;;;;;10.67;3.70;;;-1.60;99.90;;;-0.61;100.00;99755.47;5044942;28;20464;-78
2022/02/12 02:02:10;;;;;;;6.80;2.93;;;-1.60;99.90;;;-0.65;100.00;99751.41;5046438;28;20821;-78
2022/02/12 02:04:42;;;;;;;5.70;3.70;;;-1.70;99.90;;;-0.75;100.00;99752.75;5044719;28;20470;-79
2022/02/12 02:07:14;;;;;;;8.13;3.50;;;-1.80;99.90;;;-0.83;100.00;99744.56;5047151;28;20477;-78
2022/02/12 02:09:47;;;;;;;9.97;3.90;;;-1.80;99.90;;;-0.88;100.00;99749.13;5045317;28;20834;-78
2022/02/12 02:12:17;;;;;;;7.60;3.77;;;-1.80;99.90;;;-0.95;100.00;99745.19;5044682;28;20535;-78
2022/02/12 02:14:46;;;;;;;7.97;3.80;;;-1.90;99.90;;;-0.86;100.00;99744.72;5043728;28;20612;-78
2022/02/12 02:17:16;;;;;;;4.60;3.13;;;-1.80;99.90;;;-0.85;100.00;99736.13;5045164;28;20509;-78
2022/02/12 02:19:47;;;;;;;12.47;3.40;;;-1.80;99.90;;;-0.91;100.00;99749.28;5048124;28;20456;-78
2022/02/12 02:22:21;;;;;;;10.70;3.83;;;-1.80;99.90;;;-0.87;100.00;99743.09;5051301;28;20487;-78
2022/02/12 02:24:52;;;;;;;14.27;4.40;;;-1.80;99.90;;;-0.86;100.00;99734.47;5046113;28;20467;-78
2022/02/12 02:27:28;;;;;;;11.13;3.83;;;-1.80;99.90;;;-0.95;100.00;99734.91;5047398;28;20464;-77
2022/02/12 02:29:59;;;;;;;8.03;3.93;;;-1.90;99.90;;;-1.01;100.00;99736.00;5046388;28;20464;-78
2022/02/12 02:32:29;;;;;;;7.67;3.60;;;-1.90;99.90;;;-0.92;100.00;99732.19;5047012;28;20469;-78
2022/02/12 02:34:59;;;;;;;11.43;3.67;;;-1.80;99.90;;;-1.01;100.00;99730.06;5052266;28;20541;-78
2022/02/12 02:37:29;;;;;;;3.73;2.60;;;-1.90;99.90;;;-1.08;100.00;99729.50;5045450;28;20460;-78
2022/02/12 02:40:02;;;;;;;13.23;4.27;;;-2.00;99.90;;;-1.03;100.00;99726.75;5042850;28;20471;-78
2022/02/12 02:42:33;;;;;;;9.43;3.13;;;-2.00;99.90;;;-0.96;100.00;99730.69;5042810;28;20585;-78
2022/02/12 02:45:03;;;;;;;10.80;3.70;;;-1.90;99.90;;;-1.01;100.00;99718.03;5045777;28;20492;-78
2022/02/12 02:47:40;;;;;;;6.83;3.20;;;-1.90;99.90;;;-0.97;100.00;99718.72;5044748;28;20461;-78
2022/02/12 02:56:02;;;;;;;11.47;3.63;;;-1.90;99.90;;;-1.18;100.00;99717.22;5042976;28;20498;-78
2022/02/12 02:58:35;;;;;;;12.50;3.03;;;-2.10;99.90;;;-1.19;100.00;99718.13;5042231;28;20556;-78
2022/02/12 03:01:08;;;;;;;8.17;3.10;;;-2.10;99.90;;;-1.19;100.00;99700.16;5042480;28;20496;-78
2022/02/12 03:03:40;;;;;;;6.73;2.80;;;-2.10;99.90;;;-1.15;100.00;99699.94;5042398;28;20543;-78
2022/02/12 03:06:11;;;;;;;7.20;2.40;;;-2.10;99.90;;;-1.08;100.00;99703.03;5047161;28;20920;-78
2022/02/12 03:08:42;;;;;;;12.60;3.40;;;-2.00;99.90;;;-1.08;100.00;99703.03;5048249;28;20471;-78
2022/02/12 03:11:16;;;;;;;5.23;2.20;;;-2.00;99.90;;;-1.08;100.00;99693.59;5046245;28;20501;-77
2022/02/12 03:13:48;;;;;;;5.17;2.83;;;-2.00;99.90;;;-1.10;100.00;99689.44;5047323;28;20590;-78
2022/02/12 03:16:19;;;;;;;7.80;3.13;;;-2.10;99.90;;;-1.23;100.00;99693.50;5046839;28;20469;-78
2022/02/12 03:18:50;;;;;;;7.33;3.40;;;-2.20;99.90;;;-1.35;100.00;99699.19;5045301;28;20484;-78
2022/02/12 03:21:21;;;;;;;10.17;3.03;;;-2.30;99.90;;;-1.25;100.00;99691.00;5048473;28;20839;-78
2022/02/12 03:23:51;;;;;;;7.03;3.07;;;-2.20;99.90;;;-1.36;100.00;99692.41;5048161;28;20465;-78
2022/02/12 03:26:23;;;;;;;7.10;2.80;;;-2.30;99.90;;;-1.43;100.00;99686.75;5051864;28;20472;-78
2022/02/12 03:28:53;;;;;;;9.00;2.70;;;-2.30;99.90;;;-1.37;100.00;99685.63;5049934;28;20468;-78
2022/02/12 03:31:24;;;;;;;7.37;2.30;;;-2.30;99.90;;;-1.42;100.00;99690.16;5045651;28;20582;-78
2022/02/12 03:33:53;;;;;;;7.53;3.10;;;-2.40;99.90;;;-1.39;100.00;99687.44;5049211;28;21213;-77
2022/02/12 03:36:22;;;;;;;8.30;2.80;;;-2.30;99.90;;;-1.34;100.00;99681.19;5049279;28;20498;-78
2022/02/12 03:38:51;;;;;;;5.97;2.57;;;-2.20;99.90;;;-1.33;100.00;99682.00;5048456;28;20464;-78
2022/02/12 03:41:21;;;;;;;5.47;2.60;;;-2.30;99.90;;;-1.42;100.00;99683.25;5050026;28;20594;-78
2022/02/12 03:43:51;;;;;;;8.50;2.53;;;-2.40;99.90;;;-1.42;100.00;99690.16;5051191;28;20526;-77
2022/02/12 03:46:21;;;;;;;7.53;2.80;;;-2.40;99.90;;;-1.47;100.00;99682.66;5050214;28;20475;-78
2022/02/12 03:48:51;;;;;;;5.50;2.63;;;-2.50;99.90;;;-1.57;100.00;99689.94;5046636;28;20528;-78
2022/02/12 03:51:21;;;;;;;7.53;2.60;;;-2.50;99.90;;;-1.50;100.00;99684.53;5046896;28;20462;-78
2022/02/12 03:53:51;;;;;;;7.37;2.60;;;-2.50;99.90;;;-1.45;100.00;99688.53;5047466;28;20498;-78
2022/02/12 03:56:22;;;;;;;5.60;3.03;;;-2.40;99.90;;;-1.60;100.00;99684.94;5048604;28;20552;-78
2022/02/12 03:58:53;;;;;;;6.83;2.53;;;-2.60;99.90;;;-1.54;100.00;99673.59;5049064;28;20474;-78
2022/02/12 04:01:23;;;;;;;12.20;3.03;;;-2.50;99.90;;;-1.53;100.00;99670.94;5046050;28;20549;-78
2022/02/12 04:03:53;;;;;;;5.73;2.53;;;-2.50;99.90;;;-1.66;100.00;99679.25;5045793;28;20575;-78
2022/02/12 04:06:23;;;;;;;7.93;2.23;;;-2.60;99.90;;;-1.62;100.00;99666.25;5046571;28;21080;-78
2022/02/12 04:08:52;;;;;;;5.33;2.63;;;-2.60;99.90;;;-1.56;100.00;99649.72;5046746;28;20460;-78
2022/02/12 04:11:25;;;;;;;5.40;2.80;;;-2.50;99.90;;;-1.57;100.00;99648.94;5047891;28;21012;-78
2022/02/12 04:13:55;;;;;;;6.50;3.00;;;-2.50;99.90;;;-1.63;100.00;99659.44;5046339;28;20873;-78
2022/02/12 04:16:25;;;;;;;4.53;2.20;;;-2.60;99.90;;;-1.59;100.00;99657.56;5044797;28;20616;-78
2022/02/12 04:18:55;;;;;;;7.33;2.37;;;-2.50;99.90;;;-1.67;100.00;99646.84;5042227;28;20809;-78
2022/02/12 04:21:27;;;;;;;5.87;2.43;;;-2.70;99.90;;;-1.66;100.00;99636.50;5046559;28;20457;-78
2022/02/12 04:23:57;;;;;;;9.00;4.00;;;-2.60;99.90;;;-1.81;100.00;99633.84;5045716;28;20831;-77
2022/02/12 04:26:30;;;;;;;5.10;2.30;;;-2.80;99.90;;;-1.73;100.00;99635.13;5047755;28;20461;-78
2022/02/12 04:29:00;;;;;;;15.53;2.90;;;-2.70;99.90;;;-1.64;100.00;99639.03;5043396;28;20525;-78
2022/02/12 04:31:30;;;;;;;6.73;2.40;;;-2.60;99.90;;;-1.72;100.00;99644.50;5043400;28;20464;-78
2022/02/12 04:34:00;;;;;;;14.33;2.63;;;-2.70;99.90;;;-1.75;100.00;99639.53;5040322;28;20499;-78
2022/02/12 04:36:30;;;;;;;5.53;2.37;;;-2.70;99.90;;;-1.76;100.00;99627.59;5049357;28;20583;-78
2022/02/12 04:39:00;;;;;;;9.03;2.97;;;-2.80;99.90;;;-1.82;100.00;99627.03;5048229;28;20463;-78
2022/02/12 04:41:33;;;;;;;5.87;2.40;;;-2.70;99.90;;;-1.84;100.00;99629.66;5045442;28;21010;-78
2022/02/12 04:44:02;;;;;;;8.70;2.50;;;-2.80;99.90;;;-1.89;100.00;99634.19;5047136;28;21054;-77
2022/02/12 04:46:33;;;;;;;12.77;2.40;;;-2.80;99.90;;;-1.93;100.00;99627.53;5043795;28;20468;-77
2022/02/12 04:49:03;;;;;;;8.63;2.70;;;-2.90;99.90;;;-1.91;100.00;99624.91;5047909;28;20482;-78
2022/02/12 04:51:34;;;;;;;6.60;3.17;;;-2.80;99.90;;;-2.03;100.00;99627.13;5043121;28;20513;-77
2022/02/12 04:54:03;;;;;;;6.87;2.20;;;-2.90;99.90;;;-1.93;100.00;99629.25;5045473;28;20502;-78
2022/02/12 04:56:38;;;;;;;4.43;2.50;;;-2.70;99.90;;;-1.87;100.00;99623.84;5048565;28;20541;-77
2022/02/12 04:59:09;;;;;;;6.00;2.13;;;-2.80;99.90;;;-1.94;100.00;99623.31;5046489;28;20463;-78
2022/02/12 05:01:40;;;;;;;16.37;6.20;;;-2.90;99.90;;;-1.91;100.00;99628.31;5044787;28;20497;-77
2022/02/12 05:04:10;;;;;;;5.07;1.80;;;-2.80;99.90;;;-1.86;100.00;99621.22;5045571;28;21049;-78
2022/02/12 05:06:39;;;;;;;5.83;2.17;;;-2.70;99.90;;;-1.88;100.00;99612.78;5046750;28;20931;-78
2022/02/12 05:09:11;;;;;;;3.80;2.27;;;-2.80;99.90;;;-1.94;100.00;99618.19;5047696;28;20515;-78
2022/02/12 05:11:42;;;;;;;12.80;2.40;;;-2.90;99.90;;;-1.93;100.00;99612.16;5025330;28;20562;-78
2022/02/12 05:14:12;;;;;;;4.77;2.90;;;-2.80;99.90;;;-1.95;100.00;99616.53;5028027;28;20464;-78
2022/02/12 05:16:41;;;;;;;7.87;2.53;;;-2.90;99.90;;;-2.11;100.00;99610.44;5029422;28;20480;-78
2022/02/12 05:19:10;;;;;;;7.50;2.90;;;-3.10;99.90;;;-2.13;100.00;99602.00;5028258;28;20470;-78
2022/02/12 05:21:41;;;;;;;4.20;2.00;;;-3.10;99.90;;;-2.12;100.00;99601.91;5026983;28;20902;-78
2022/02/12 05:24:10;;;;;;;9.93;2.90;;;-3.10;99.90;;;-2.11;100.00;99597.63;5027567;28;20503;-78
2022/02/12 05:26:44;;;;;;;7.83;3.40;;;-3.00;99.90;;;-2.12;100.00;99598.53;5030980;28;21037;-75
2022/02/12 05:29:13;;;;;;;6.70;2.50;;;-3.00;99.90;;;-2.13;100.00;99594.31;5033683;28;20877;-75
2022/02/12 05:31:43;;;;;;;6.70;2.47;;;-3.10;99.90;;;-2.18;100.00;99594.50;5032441;28;20471;-75
2022/02/12 05:34:19;;;;;;;7.73;2.70;;;-3.10;99.90;;;-2.08;100.00;99594.91;5034783;28;20445;-75
2022/02/12 05:36:49;;;;;;;7.33;2.80;;;-3.00;99.90;;;-2.06;100.00;99595.69;5033659;28;21033;-75
2022/02/12 05:39:19;;;;;;;6.77;2.00;;;-3.00;99.90;;;-2.10;100.00;99594.16;5034763;28;20475;-75
2022/02/12 05:41:52;;;;;;;8.70;2.37;;;-3.00;99.90;;;-2.03;100.00;99590.44;5034577;28;20463;-76
2022/02/12 05:44:27;;;;;;;6.17;2.87;;;-2.90;99.90;;;-2.00;100.00;99592.84;5029570;28;20467;-76
2022/02/12 05:46:57;;;;;;;5.13;1.93;;;-2.90;99.90;;;-1.99;100.00;99574.00;5030458;28;20609;-76
2022/02/12 05:49:28;;;;;;;6.63;2.30;;;-2.80;99.90;;;-1.97;100.00;99584.19;5029245;28;20479;-75
2022/02/12 05:52:01;;;;;;;7.87;2.73;;;-2.90;99.90;;;-2.01;100.00;99575.78;5030631;28;20496;-75
2022/02/12 05:54:32;;;;;;;5.90;2.60;;;-2.90;99.90;;;-2.04;100.00;99575.94;5029328;28;21242;-81
2022/02/12 05:57:04;;;;;;;9.40;1.90;;;-3.00;99.90;;;-2.20;100.00;99575.00;5028112;28;20520;-75
2022/02/12 05:59:33;;;;;;;4.70;1.93;;;-3.10;99.90;;;-2.20;100.00;99578.38;5030444;28;20549;-76
2022/02/12 06:02:04;;;;;;;7.83;2.20;;;-3.10;99.90;;;-2.17;100.00;99569.72;5028585;28;20491;-75
2022/02/12 06:04:34;;;;;;;5.93;2.00;;;-3.10;99.90;;;-2.25;100.00;99577.75;5030006;28;20513;-76
2022/02/12 06:07:04;;;;;;;6.50;2.90;;;-3.20;99.90;;;-2.30;100.00;99569.47;5028362;28;20490;-76
2022/02/12 06:09:32;;;;;;;12.63;2.83;;;-3.30;99.90;;;-2.35;100.00;99566.25;5030741;28;20462;-75
2022/02/12 06:12:07;;;;;;;8.10;2.40;;;-3.30;99.90;;;-2.33;100.00;99564.47;5031169;28;20472;-76
2022/02/12 06:14:36;;;;;;;4.13;2.20;;;-3.30;99.90;;;-2.36;100.00;99559.47;5030845;28;20580;-75
2022/02/12 06:17:06;;;;;;;8.83;2.10;;;-3.30;99.90;;;-2.47;100.00;99550.63;5028804;28;20590;-75
2022/02/12 06:19:37;;;;;;;5.50;2.20;;;-3.50;99.90;;;-2.37;100.00;99552.72;5028314;28;20464;-76
2022/02/12 06:22:08;;;;;;;5.27;2.63;;;-3.20;99.90;;;-2.36;100.00;99556.91;5027583;28;20475;-75
2022/02/12 06:24:39;;;;;;;12.23;2.53;;;-3.30;99.90;;;-2.56;100.00;99557.81;5028861;28;21031;-75
2022/02/12 06:27:11;;;;;;;2.33;1.97;;;-3.50;99.90;;;-2.49;100.00;99552.41;5027358;28;20467;-75
2022/02/12 06:29:41;;;;;;;3.10;1.90;;;-3.40;99.90;;;-2.48;100.00;99554.91;5028851;28;20482;-75
2022/02/12 06:32:10;;;;;;;5.90;2.50;;;-3.40;99.90;;;-2.46;100.00;99554.88;5028331;28;21006;-76
2022/02/12 06:34:39;;;;;;;8.97;2.67;;;-3.40;99.90;;;-2.50;100.00;99550.78;5033912;28;20499;-76
2022/02/12 06:37:09;;;;;;;4.70;2.20;;;-3.50;99.90;;;-2.51;100.00;99549.94;5031628;28;20598;-75
2022/02/12 06:39:40;;;;;;;3.90;2.40;;;-3.50;99.90;;;-2.49;100.00;99548.13;5031172;28;20561;-76
2022/02/12 06:42:14;;;;;;;8.97;2.20;;;-3.40;99.90;;;-2.53;100.00;99545.78;5033734;28;20549;-76
2022/02/12 06:44:45;;;;;;;4.50;3.70;;;-3.40;99.90;;;-2.69;100.00;99543.06;5039758;28;21020;-81
2022/02/12 06:47:15;;;;;;;6.93;2.07;;;-3.60;99.90;;;-2.65;100.00;99542.88;5038170;28;20546;-75
2022/02/12 06:49:44;;;;;;;3.00;2.17;;;-3.60;99.90;;;-2.59;100.00;99541.75;5038622;28;20966;-75
2022/02/12 06:52:14;;;;;;;3.70;2.40;;;-3.50;99.90;;;-2.53;100.00;99539.75;5036651;28;20466;-75
2022/02/12 06:54:43;;;;;;;7.10;2.07;;;-3.40;99.90;;;-2.50;100.00;99540.53;5036489;28;20463;-75
2022/02/12 06:57:15;;;;;;;3.30;2.13;;;-3.40;99.90;;;-2.53;100.00;99536.34;5034096;28;20927;-75
2022/02/12 06:59:45;;;;;;;10.33;2.63;;;-3.50;99.90;;;-2.46;100.00;99536.94;5034575;28;20470;-75
2022/02/12 07:02:17;;;;;;;4.60;2.03;;;-3.40;99.90;;;-2.45;100.00;99541.13;5038586;28;20569;-75
2022/02/12 07:04:46;;;;;;;5.40;2.20;;;-3.40;99.90;;;-2.42;100.00;99536.72;5038692;28;20486;-76
2022/02/12 07:07:16;;;;;;;5.47;2.40;;;-3.40;99.90;;;-2.48;100.00;99539.56;5037684;28;20545;-76
2022/02/12 07:09:46;;;;;;;5.57;2.13;;;-3.30;99.90;;;-2.70;100.00;99547.34;5037846;28;20455;-75
2022/02/12 07:12:17;;;;;;;5.80;2.30;;;-3.60;99.90;;;-2.69;100.00;99540.50;5037910;28;20463;-76
2022/02/12 07:14:47;;;;;;;5.47;2.77;;;-3.60;99.90;;;-2.76;100.00;99547.63;5037758;28;20936;-76
2022/02/12 07:17:16;;;;;;;5.67;2.47;;;-3.70;99.90;;;-2.69;100.00;99556.69;5033335;28;20500;-75
2022/02/12 07:19:47;;;;;;;13.63;2.30;;;-3.60;99.90;;;-2.63;100.00;99556.41;5030455;28;20550;-76
2022/02/12 07:22:24;;;;;;;6.53;2.93;;;-3.50;99.90;;;-2.62;100.00;99547.00;5031924;28;20521;-75
2022/02/12 07:24:56;;;;;;;8.20;2.80;;;-3.50;99.90;;;-2.51;100.00;99554.22;5030695;28;20806;-77
2022/02/12 07:27:27;;;;;;;6.77;2.10;;;-3.40;99.90;;;-2.41;100.00;99558.03;5032944;28;20885;-75
2022/02/12 07:29:58;;;;;;;3.50;1.93;;;-3.30;99.90;;;-2.35;100.00;99553.47;5032327;28;20463;-76
2022/02/12 07:32:28;;;;;;;3.67;2.57;;;-3.30;99.90;;;-2.31;100.00;99557.53;5033873;28;20466;-75
2022/02/12 07:34:58;;;;;;;9.60;2.60;;;-3.20;99.90;;;-2.26;100.00;99557.34;5031065;28;20960;-75
2022/02/12 07:37:28;;;;;;;14.80;3.60;;;-3.20;99.90;;;-2.20;100.00;99554.50;5033635;28;20579;-75
2022/02/12 07:40:00;;;;;;;6.90;2.80;;;-3.00;99.90;;;-2.13;100.00;99555.88;5031172;28;20471;-75
2022/02/12 07:42:31;;;;;;;10.17;2.83;;;-2.90;99.90;;;-2.10;100.00;99553.16;5033424;28;20562;-75
2022/02/12 07:45:00;;;;;;;7.47;3.00;;;-2.90;99.90;;;-2.10;100.00;99550.63;5031946;28;20472;-76
2022/02/12 07:47:30;;;;;;;4.53;2.67;;;-2.90;99.90;;;-2.15;100.00;99548.25;5034740;28;21894;-75
2022/02/12 07:49:59;;;;;;;4.53;2.47;;;-3.00;99.90;;;-2.16;100.00;99543.22;5031444;28;20465;-75
2022/02/12 07:52:30;;;;;;;7.40;2.90;;;-3.00;99.90;;;-2.10;100.00;99553.16;5034878;28;20468;-75
2022/02/12 07:55:01;;;;;;;6.07;2.70;;;-3.00;99.90;;;-2.09;100.00;99542.88;5031679;28;20494;-75
2022/02/12 07:57:33;;;;;;;11.13;2.87;;;-2.90;99.90;;;-2.09;100.00;99545.44;5031870;28;20518;-75
2022/02/12 08:00:05;;;;;;;10.40;2.77;;;-2.90;99.90;;;-2.09;100.00;99545.44;5033161;28;20552;-75
2022/02/12 08:02:34;;;;;;;11.90;3.20;;;-2.90;99.90;;;-2.05;100.00;99541.00;5032044;28;21020;-75
2022/02/12 08:05:06;;;;;;;4.70;2.70;;;-2.90;99.90;;;-2.11;100.00;99543.81;5033454;28;20469;-75
2022/02/12 08:07:37;;;;;;;5.47;2.30;;;-3.00;99.90;;;-2.07;100.00;99541.06;5034447;28;20457;-75
2022/02/12 08:13:03;;;;;;;9.20;2.93;;;-2.90;99.90;;;-2.10;100.00;99541.19;5036973;28;20460;-77
2022/02/12 08:15:38;;;;;;;15.47;3.03;;;-3.00;99.90;;;-2.00;100.00;99539.03;5032017;28;20477;-75
2022/02/12 08:18:08;;;;;;;6.30;2.50;;;-2.80;99.90;;;-1.96;100.00;99540.56;5033497;28;20671;-75
2022/02/12 08:20:38;;;;;;;8.13;2.90;;;-2.80;99.90;;;-2.04;100.00;99537.50;5035184;28;20478;-75
2022/02/12 08:23:11;;;;;;;14.53;2.83;;;-2.90;99.90;;;-1.97;100.00;99541.44;5041132;28;20460;-75
2022/02/12 08:25:41;;;;;;;10.03;3.50;;;-2.80;99.90;;;-1.93;100.00;99530.16;5038401;28;21250;-75
2022/02/12 08:28:15;;;;;;;6.57;2.90;;;-2.80;99.90;;;-1.88;100.00;99529.94;5034161;28;21209;-75
2022/02/12 08:30:45;;;;;;;7.87;3.20;;;-2.80;99.90;;;-1.93;100.00;99535.28;5027033;28;20604;-75
2022/02/12 08:33:17;;;;;;;11.50;3.00;;;-2.80;99.90;;;-1.90;100.00;99536.88;5030901;28;20464;-75
2022/02/12 08:35:55;;;;;;;8.10;3.57;;;-2.80;99.90;;;-1.80;100.00;99533.78;5031637;28;20478;-76
2022/02/12 08:38:25;;;;;;;10.73;3.43;;;-2.60;99.90;;;-1.72;100.00;99533.44;5034550;28;20515;-76
2022/02/12 08:40:57;;;;;;;11.93;4.13;;;-2.50;99.90;;;-1.67;100.00;99534.88;5037326;28;21245;-75
2022/02/12 08:43:35;;;;;;;5.27;3.30;;;-2.40;99.90;;;-1.60;100.00;99531.09;5040540;28;20472;-75
2022/02/12 08:46:06;;;;;;;12.67;3.47;;;-2.40;99.90;;;-1.50;100.00;99533.22;5039606;28;20465;-75
2022/02/12 08:48:37;;;;;;;14.57;3.03;;;-2.30;99.90;;;-1.45;100.00;99528.69;5037735;28;20485;-75
2022/02/12 08:51:09;;;;;;;17.20;3.57;;;-2.30;99.90;;;-1.42;100.00;99529.38;5038723;28;20459;-75
2022/02/12 08:53:41;;;;;;;6.37;2.90;;;-2.20;99.90;;;-1.44;100.00;99533.75;5037933;28;21832;-80
2022/02/12 08:56:12;;;;;;;8.20;3.23;;;-2.30;99.90;;;-1.43;100.00;99526.91;5036321;28;20467;-75
2022/02/12 08:58:44;;;;;;;5.53;3.13;;;-2.30;99.90;;;-1.38;100.00;99530.88;5036686;28;20635;-76
2022/02/12 09:01:15;;;;;;;7.00;3.73;;;-2.20;99.90;;;-1.29;100.00;99527.03;5037866;28;20489;-75
2022/02/12 09:03:47;;;;;;;12.87;3.50;;;-2.10;99.90;;;-1.26;100.00;99526.88;5036606;28;20459;-76
2022/02/12 09:06:20;;;;;;;4.13;3.50;;;-2.10;99.90;;;-1.19;100.00;99528.25;5035506;28;20482;-76
2022/02/12 09:08:52;;;;;;;8.23;3.53;;;-2.00;99.90;;;-1.15;100.00;99533.16;5038653;28;20496;-75
2022/02/12 09:11:25;;;;;;;4.83;3.20;;;-2.00;99.90;;;-1.13;100.00;99525.34;5036931;28;20576;-75
2022/02/12 09:13:57;;;;;;;6.17;3.27;;;-1.90;99.90;;;-1.09;100.00;99527.69;5038759;28;20463;-75
2022/02/12 09:16:27;;;;;;;9.00;3.50;;;-1.90;99.90;;;-1.00;100.00;99518.69;5033025;28;20499;-75
2022/02/12 09:19:00;;;;;;;8.00;3.33;;;-1.80;99.90;;;-0.95;100.00;99514.16;5031027;28;20457;-75
2022/02/12 09:21:30;;;;;;;11.57;4.60;;;-1.80;99.90;;;-0.89;100.00;99513.00;5037090;28;21193;-75
2022/02/12 09:24:00;;;;;;;6.63;4.00;;;-1.70;99.90;;;-0.87;100.00;99516.34;5038124;28;20457;-75
2022/02/12 09:26:32;;;;;;;9.60;4.10;;;-1.70;99.90;;;-0.80;100.00;99508.22;5036770;28;20461;-75
2022/02/12 09:29:07;;;;;;;11.97;4.20;;;-1.60;99.90;;;-0.84;100.00;99511.88;5033136;28;20461;-75
2022/02/12 09:31:37;;;;;;;12.57;3.40;;;-1.70;99.90;;;-0.79;100.00;99509.88;5031561;28;20890;-75
2022/02/12 09:34:12;;;;;;;7.50;3.80;;;-1.60;99.90;;;-0.76;100.00;99514.84;5034507;28;20468;-75
2022/02/12 09:36:43;;;;;;;9.53;3.70;;;-1.60;99.90;;;-0.68;100.00;99501.63;5036265;28;20829;-75
2022/02/12 09:39:13;;;;;;;7.53;3.50;;;-1.50;99.90;;;-0.60;100.00;99502.88;5035357;28;20466;-75
2022/02/12 09:41:46;;;;;;;10.17;3.23;;;-1.40;99.90;;;-0.49;100.00;99491.22;5035436;28;20481;-76
2022/02/12 09:44:20;;;;;;;12.13;3.07;;;-1.20;99.90;;;-0.40;100.00;99494.09;5037314;28;20454;-75
2022/02/12 09:47:24;;;;;;;8.20;3.93;;;-1.20;99.90;;;-0.30;100.00;99497.00;5035906;28;20471;-80
2022/02/12 09:49:58;;;;;;;13.30;4.37;;;-1.10;99.90;;;-0.20;100.00;99487.88;5035332;28;20477;-75
2022/02/12 09:52:33;;;;;;;8.13;4.10;;;-0.90;99.90;;;-0.11;100.00;99487.38;5038764;28;21145;-76
2022/02/12 09:55:07;;;;;;;9.80;4.00;;;-0.90;99.90;;;-0.06;100.00;99485.38;5035041;28;20519;-75
2022/02/12 09:57:36;;;;;;;10.73;3.50;;;-0.80;99.90;;;0.03;100.00;99482.31;5039629;28;20488;-75
2022/02/12 10:00:14;;;;;;;4.73;3.20;;;-0.70;99.90;;;0.10;100.00;99475.91;5032698;28;20948;-75
2022/02/12 10:02:44;;;;;;;12.57;3.40;;;-0.60;99.90;;;0.18;100.00;99471.16;5035672;28;20563;-76
2022/02/12 10:05:28;;;;;;;18.27;7.80;;;-0.50;99.90;;;0.27;100.00;99468.06;5032305;28;20859;-75
2022/02/12 10:08:16;;;;;;;6.60;3.47;;;-0.50;99.90;;;0.35;100.00;99465.88;5034541;28;20494;-75
2022/02/12 10:10:47;;;;;;;13.43;3.97;;;-0.30;99.90;;;0.43;100.00;99461.13;5037852;28;20954;-76
2022/02/12 10:13:20;;;;;;;9.20;3.90;;;-0.30;99.90;;;0.50;100.00;99456.44;5036472;28;20460;-76
2022/02/12 10:15:55;;;;;;;7.33;3.70;;;-0.20;99.90;;;0.56;100.00;99463.81;5039087;28;20526;-75
2022/02/12 10:18:28;;;;;;;7.87;2.57;;;-0.10;99.90;;;0.65;100.00;99463.28;5038412;28;20496;-76
2022/02/12 10:21:02;;;;;;;16.77;4.10;;;0.00;99.90;;;0.73;100.00;99455.13;5038885;28;20511;-75
2022/02/12 10:23:34;;;;;;;10.93;3.83;;;0.00;99.90;;;0.80;100.00;99457.22;5038937;28;20456;-76
2022/02/12 10:26:13;;;;;;;8.63;3.30;;;0.10;99.90;;;0.88;100.00;99454.19;5037695;28;20471;-75
2022/02/12 10:28:46;;;;;;;9.27;3.10;;;0.20;99.90;;;0.94;100.00;99443.50;5037957;28;20851;-75
2022/02/12 10:31:17;;;;;;;9.03;3.50;;;0.40;99.90;;;1.00;100.00;99443.16;5038728;28;20454;-76
2022/02/12 10:33:51;;;;;;;8.70;3.77;;;0.40;99.90;;;1.06;100.00;99437.63;5038626;28;20489;-76
2022/02/12 10:36:23;;;;;;;6.20;3.27;;;0.40;99.90;;;1.11;100.00;99438.16;5039591;28;20443;-76
2022/02/12 10:38:57;;;;;;;19.50;4.20;;;0.40;99.90;;;1.18;100.00;99434.31;5038310;28;20498;-76